Time;durP1;ratioP1;P1;durP2;ratioP2;P2;SDS_P1;SDS_P2;PMS_P1;PMS_P2;Temp;Humidity;BMP_temperature;BMP_pressure;BME280_temperature;BME280_humidity;BME280_pressure;Samples;Min_cycle;Max_cycle;Signal;HPM_P1;HPM_P2
2022/03/12 00:09:40;;;;;;;39.35;20.48;;;4.70;99.90;;;;;;20885301;28;19944;-78
2022/03/12 00:19:42;;;;;;;34.13;13.90;;;4.80;99.90;;;;;;20884085;28;20025;-78
2022/03/12 00:29:44;;;;;;;29.60;12.98;;;4.60;99.90;;;;;;20875542;28;20088;-78
2022/03/12 00:39:47;;;;;;;22.05;11.38;;;4.40;99.90;;;;;;20888523;28;20484;-77
2022/03/12 00:49:49;;;;;;;27.55;10.95;;;4.50;99.90;;;;;;20876660;28;20037;-78
2022/03/12 00:59:51;;;;;;;25.80;11.60;;;4.50;99.90;;;;;;20881295;28;20056;-78
2022/03/12 01:09:55;;;;;;;25.08;10.73;;;4.80;99.90;;;;;;20884123;28;20400;-78
2022/03/12 01:19:55;;;;;;;30.77;12.52;;;4.90;99.90;;;;;;20877765;28;20033;-79
2022/03/12 01:29:56;;;;;;;30.27;13.73;;;4.90;99.90;;;;;;20881048;28;20049;-78
2022/03/12 01:39:59;;;;;;;32.70;14.15;;;4.80;99.90;;;;;;20883318;28;20025;-78
2022/03/12 01:50:01;;;;;;;37.90;15.73;;;4.50;99.90;;;;;;20881640;28;20040;-78
2022/03/12 02:00:04;;;;;;;44.00;14.35;;;4.40;99.90;;;;;;20882349;28;20021;-78
2022/03/12 02:10:08;;;;;;;27.15;12.13;;;4.60;99.90;;;;;;20872560;28;20029;-78
2022/03/12 02:20:09;;;;;;;31.55;13.50;;;4.30;99.90;;;;;;20872373;28;20037;-78
2022/03/12 02:30:12;;;;;;;43.28;18.27;;;4.20;99.90;;;;;;20858930;28;20369;-78
2022/03/12 02:40:13;;;;;;;41.83;16.90;;;4.40;99.90;;;;;;20866504;28;20152;-77
2022/03/12 02:50:14;;;;;;;;;;;4.50;99.90;;;;;;20886093;23;20045;-75
2022/03/12 03:00:17;;;;;;;29.52;14.00;;;4.30;99.90;;;;;;20906261;28;20000;-75
2022/03/12 03:10:50;;;;;;;33.38;14.30;;;4.60;99.90;;;;;;20906912;28;20526;-75
2022/03/12 03:20:53;;;;;;;31.80;14.68;;;4.60;99.90;;;;;;20890016;28;20138;-76
2022/03/12 03:30:53;;;;;;;36.28;14.52;;;4.60;99.90;;;;;;20904577;28;20041;-76
2022/03/12 03:40:54;;;;;;;26.13;13.05;;;4.50;99.90;;;;;;20919225;28;20040;-76
2022/03/12 03:50:55;;;;;;;32.17;14.95;;;4.60;99.90;;;;;;20920331;28;20033;-76
2022/03/12 04:01:26;;;;;;;31.50;14.60;;;4.60;99.90;;;;;;20919835;28;20032;-76
2022/03/12 04:11:27;;;;;;;26.88;13.85;;;4.30;99.90;;;;;;20906187;28;20065;-75
2022/03/12 04:21:28;;;;;;;40.72;13.52;;;4.30;99.90;;;;;;20923964;28;20036;-76
2022/03/12 04:31:31;;;;;;;31.48;13.18;;;4.20;99.90;;;;;;20917371;28;20032;-76
2022/03/12 04:41:34;;;;;;;31.45;13.38;;;4.40;99.90;;;;;;20915883;28;20041;-75
2022/03/12 04:51:35;;;;;;;31.08;14.32;;;4.40;99.90;;;;;;20915220;28;20399;-76
2022/03/12 05:01:36;;;;;;;34.00;15.27;;;4.60;99.90;;;;;;20915296;28;20075;-75
2022/03/12 05:11:38;;;;;;;32.30;13.90;;;4.60;99.90;;;;;;20914391;28;20851;-76
2022/03/12 05:21:39;;;;;;;32.45;13.38;;;4.60;99.90;;;;;;20913358;28;20034;-76
2022/03/12 05:31:40;;;;;;;38.53;14.88;;;4.30;99.90;;;;;;20912310;28;20033;-75
2022/03/12 05:41:42;;;;;;;34.60;15.25;;;3.80;99.90;;;;;;20910399;28;20037;-75
2022/03/12 05:51:43;;;;;;;35.22;14.43;;;3.70;99.90;;;;;;20910578;28;20029;-75
2022/03/12 06:01:47;;;;;;;26.83;13.80;;;3.60;99.90;;;;;;20909591;28;20032;-75
2022/03/12 06:11:51;;;;;;;;;;;3.60;99.90;;;;;;20909816;28;20060;-75
2022/03/12 06:21:51;;;;;;;30.85;13.00;;;3.80;99.90;;;;;;20908682;28;19916;-74
2022/03/12 06:31:52;;;;;;;31.08;13.50;;;3.90;99.90;;;;;;20908203;28;20510;-75
2022/03/12 06:41:55;;;;;;;29.20;13.93;;;4.20;99.90;;;;;;20906818;28;20032;-75
2022/03/12 06:51:56;;;;;;;28.30;13.05;;;4.50;99.90;;;;;;20907139;28;20538;-75
2022/03/12 07:01:58;;;;;;;32.28;14.07;;;5.10;99.90;;;;;;20905707;28;20025;-75
2022/03/12 07:11:59;;;;;;;33.35;14.02;;;5.30;99.90;;;;;;20845989;28;20045;-76
2022/03/12 07:22:01;;;;;;;30.67;13.75;;;5.50;99.90;;;;;;20802969;28;20597;-75
2022/03/12 07:32:01;;;;;;;;;;;5.40;99.90;;;;;;20845300;28;20160;-74
2022/03/12 07:42:03;;;;;;;31.23;14.60;;;5.10;99.90;;;;;;20818012;28;20020;-76
2022/03/12 07:52:05;;;;;;;30.08;14.02;;;5.10;99.90;;;;;;20817635;28;20094;-75
2022/03/12 08:02:08;;;;;;;31.73;13.43;;;5.40;99.90;;;;;;20814821;28;20132;-76
2022/03/12 08:12:09;;;;;;;27.13;12.90;;;5.60;99.90;;;;;;20808128;28;20030;-76
2022/03/12 08:22:10;;;;;;;32.07;12.27;;;5.90;99.90;;;;;;20787421;28;20037;-75
2022/03/12 08:32:12;;;;;;;29.13;12.50;;;6.10;99.90;;;;;;20826617;28;20487;-75
2022/03/12 08:42:12;;;;;;;30.65;13.32;;;6.30;99.90;;;;;;20770156;28;20025;-75
2022/03/12 08:52:13;;;;;;;32.27;13.80;;;6.50;99.90;;;;;;20839628;23;20095;-76
2022/03/12 09:02:14;;;;;;;27.33;14.37;;;6.60;99.90;;;;;;20913805;28;20033;-76
2022/03/12 09:12:15;;;;;;;30.67;15.27;;;7.00;99.90;;;;;;20914086;28;20550;-77
2022/03/12 09:22:16;;;;;;;34.07;14.43;;;7.20;99.90;;;;;;20913507;28;20064;-76
2022/03/12 09:32:17;;;;;;;29.93;13.63;;;7.30;99.90;;;;;;20912799;28;20079;-76
2022/03/12 09:42:18;;;;;;;27.97;13.43;;;7.50;99.90;;;;;;20911842;28;20040;-76
2022/03/12 09:52:19;;;;;;;31.13;14.27;;;8.00;99.90;;;;;;20910866;28;20059;-76
2022/03/12 10:02:20;;;;;;;32.10;13.23;;;8.60;99.90;;;;;;20910078;28;20032;-77
2022/03/12 10:12:21;;;;;;;32.63;15.18;;;9.70;99.90;;;;;;20909366;28;20112;-76
2022/03/12 10:22:23;;;;;;;33.20;14.40;;;10.20;99.90;;;;;;20907574;28;20068;-77
2022/03/12 10:32:34;;;;;;;27.60;15.23;;;11.40;99.90;;;;;;20908153;28;20039;-77
2022/03/12 10:42:37;;;;;;;26.77;13.40;;;11.80;99.90;;;;;;20907231;28;20112;-77
2022/03/12 10:52:46;;;;;;;30.10;14.70;;;12.00;99.90;;;;;;20906969;28;20406;-76
2022/03/12 11:02:59;;;;;;;32.20;15.15;;;12.40;99.90;;;;;;20907107;28;20028;-77
2022/03/12 11:13:02;;;;;;;33.88;15.18;;;13.10;99.90;;;;;;20905782;28;20041;-77
2022/03/12 11:23:16;;;;;;;31.75;15.35;;;13.60;99.90;;;;;;20906154;28;20035;-76
2022/03/12 11:33:20;;;;;;;27.58;13.63;;;13.20;99.90;;;;;;20906095;28;20029;-76
2022/03/12 11:43:22;;;;;;;26.85;13.88;;;13.80;99.90;;;;;;20904441;28;20033;-77
2022/03/12 11:53:24;;;;;;;32.40;16.05;;;15.10;99.90;;;;;;20903814;28;20098;-77
2022/03/12 12:03:25;;;;;;;26.90;15.43;;;16.90;95.70;;;;;;20920102;28;20059;-76
2022/03/12 12:13:26;;;;;;;25.80;14.07;;;16.90;93.90;;;;;;20919033;28;20071;-77
2022/03/12 12:23:30;;;;;;;25.58;14.15;;;15.60;96.70;;;;;;20892685;28;20122;-75
2022/03/12 12:33:32;;;;;;;24.63;13.68;;;16.30;94.70;;;;;;20882466;28;20053;-75
2022/03/12 12:43:45;;;;;;;31.47;15.27;;;16.90;94.10;;;;;;20875061;28;20051;-77
2022/03/12 12:53:51;;;;;;;28.45;14.75;;;16.50;93.90;;;;;;20914400;28;20037;-76
2022/03/12 13:03:54;;;;;;;25.63;14.43;;;17.20;94.50;;;;;;20914025;28;20071;-76
2022/03/12 13:13:58;;;;;;;26.52;13.52;;;17.20;93.80;;;;;;20912129;28;20098;-76
2022/03/12 13:23:59;;;;;;;26.48;14.27;;;17.30;91.70;;;;;;20913528;28;20053;-76
2022/03/12 13:34:12;;;;;;;26.05;14.23;;;17.50;91.80;;;;;;20912885;28;20116;-76
2022/03/12 13:44:14;;;;;;;;;;;17.80;91.20;;;;;;20912440;28;20036;-76
2022/03/12 13:54:16;;;;;;;25.63;14.93;;;17.40;90.50;;;;;;20910727;28;20007;-76
2022/03/12 14:04:25;;;;;;;25.65;14.00;;;17.00;91.00;;;;;;20909033;28;20029;-76
2022/03/12 14:14:28;;;;;;;26.52;14.80;;;16.80;90.50;;;;;;20909771;28;20025;-76
2022/03/12 14:24:34;;;;;;;30.77;14.07;;;16.80;92.10;;;;;;20908314;28;20029;-76
2022/03/12 14:34:38;;;;;;;30.00;13.63;;;16.90;90.00;;;;;;20904752;28;20080;-76
2022/03/12 14:44:41;;;;;;;31.48;13.50;;;17.80;88.50;;;;;;20835866;28;20037;-76
2022/03/12 14:54:48;;;;;;;30.25;13.88;;;17.60;87.90;;;;;;20887038;23;20049;-75
2022/03/12 15:04:52;;;;;;;28.50;14.05;;;16.90;88.50;;;;;;20912456;28;20453;-75
2022/03/12 15:14:57;;;;;;;25.73;13.25;;;16.80;90.60;;;;;;20905461;28;20490;-75
2022/03/12 15:24:58;;;;;;;27.33;13.57;;;17.40;90.10;;;;;;20906039;28;20515;-75
2022/03/12 15:35:00;;;;;;;29.48;14.20;;;17.60;88.20;;;;;;20918147;28;20411;-75
2022/03/12 15:45:01;;;;;;;28.23;14.32;;;16.40;90.00;;;;;;20921877;28;20554;-75
2022/03/12 15:55:02;;;;;;;26.73;13.60;;;16.40;89.10;;;;;;20908715;28;20075;-75
2022/03/12 16:05:05;;;;;;;24.83;14.10;;;16.50;90.20;;;;;;20819231;28;20071;-75
2022/03/12 16:15:10;;;;;;;28.30;13.68;;;15.90;90.30;;;;;;20816915;28;20036;-76
2022/03/12 16:25:17;;;;;;;33.38;15.52;;;15.40;90.50;;;;;;20814617;28;20145;-76
2022/03/12 16:35:26;;;;;;;27.48;13.75;;;14.80;91.20;;;;;;20815192;28;20037;-75
2022/03/12 16:45:29;;;;;;;34.63;14.02;;;14.80;91.70;;;;;;20830386;28;20415;-75
2022/03/12 16:55:30;;;;;;;27.55;14.07;;;14.10;92.20;;;;;;20818584;28;20049;-76
2022/03/12 17:05:34;;;;;;;29.87;13.93;;;13.60;93.20;;;;;;20790933;28;20570;-78
2022/03/12 17:15:35;;;;;;;29.15;13.40;;;13.20;94.40;;;;;;20813936;28;20036;-75
2022/03/12 17:25:36;;;;;;;27.60;14.37;;;12.70;95.30;;;;;;20809753;28;20037;-75
2022/03/12 17:35:39;;;;;;;42.20;15.07;;;12.00;96.50;;;;;;20811072;28;20060;-75
2022/03/12 17:45:42;;;;;;;27.50;12.93;;;11.30;97.50;;;;;;20809085;28;20041;-75
2022/03/12 17:55:43;;;;;;;33.05;15.13;;;10.60;99.20;;;;;;20850976;28;20067;-74
2022/03/12 18:05:45;;;;;;;20.57;9.50;;;9.70;99.90;;;;;;20890417;28;20075;-75
2022/03/12 18:15:48;;;;;;;37.63;14.15;;;10.00;99.90;;;;;;20889905;28;20033;-74
2022/03/12 18:25:50;;;;;;;32.88;14.57;;;10.00;99.90;;;;;;20874703;28;20033;-74
2022/03/12 18:35:52;;;;;;;34.53;15.00;;;9.50;99.90;;;;;;20806251;28;20030;-74
2022/03/12 18:45:53;;;;;;;32.80;15.52;;;9.30;99.90;;;;;;20805857;28;20069;-74
2022/03/12 18:55:54;;;;;;;35.20;14.70;;;8.90;99.90;;;;;;20847006;28;20069;-74
2022/03/12 19:05:56;;;;;;;33.90;16.20;;;8.60;99.90;;;;;;20809543;28;20147;-74
2022/03/12 19:15:57;;;;;;;30.77;14.82;;;8.50;99.90;;;;;;20821597;28;20666;-74
2022/03/12 19:25:58;;;;;;;31.83;14.80;;;8.60;99.90;;;;;;20786747;28;20033;-74
2022/03/12 19:35:59;;;;;;;28.80;14.35;;;8.30;99.90;;;;;;20791019;28;20042;-74
2022/03/12 19:46:00;;;;;;;31.77;13.97;;;8.00;99.90;;;;;;20838455;28;20037;-74
2022/03/12 19:56:01;;;;;;;41.13;14.30;;;7.90;99.90;;;;;;20837636;28;20034;-74
2022/03/12 20:06:02;;;;;;;29.33;14.30;;;7.90;99.90;;;;;;20835742;28;20034;-74
2022/03/12 20:16:07;;;;;;;29.17;14.18;;;7.90;99.90;;;;;;20835183;28;20041;-75
2022/03/12 20:26:10;;;;;;;29.83;12.63;;;7.60;99.90;;;;;;20835582;28;20026;-74
2022/03/12 20:36:12;;;;;;;29.70;13.55;;;7.60;99.90;;;;;;20834742;28;20159;-74
2022/03/12 20:46:13;;;;;;;26.50;13.10;;;7.50;99.90;;;;;;20834068;28;20034;-74
2022/03/12 20:56:14;;;;;;;31.75;13.55;;;7.30;99.90;;;;;;20904594;23;20075;-77
2022/03/12 21:06:15;;;;;;;24.95;12.98;;;7.10;99.90;;;;;;20918092;28;20029;-77
2022/03/12 21:16:18;;;;;;;;;;;7.10;99.90;;;;;;20917718;28;20032;-76
2022/03/12 21:26:24;;;;;;;;;;;6.80;99.90;;;;;;20917161;28;19952;-75
2022/03/12 21:36:25;;;;;;;33.33;12.70;;;6.50;99.90;;;;;;20918139;28;19999;-77
2022/03/12 21:46:27;;;;;;;27.33;13.20;;;6.40;99.90;;;;;;20917153;28;20067;-77
2022/03/12 21:56:29;;;;;;;27.90;13.05;;;6.40;99.90;;;;;;20917217;28;20037;-78
2022/03/12 22:06:31;;;;;;;29.13;12.88;;;6.10;99.90;;;;;;20914870;28;20029;-77
2022/03/12 22:16:32;;;;;;;31.98;13.65;;;6.20;99.90;;;;;;20911326;28;20036;-77
2022/03/12 22:26:33;;;;;;;30.95;13.30;;;5.80;99.90;;;;;;20909340;28;20021;-77
2022/03/12 22:36:34;;;;;;;29.33;13.43;;;5.70;99.90;;;;;;20908369;28;20075;-77
2022/03/12 22:46:36;;;;;;;26.42;13.38;;;5.70;99.90;;;;;;20906799;28;20064;-77
2022/03/12 22:56:37;;;;;;;28.10;13.13;;;5.60;99.90;;;;;;20908823;28;20032;-77
2022/03/12 23:16:57;;;;;;;32.45;14.48;;;5.50;99.90;;;;;;20906590;28;20044;-77
2022/03/12 23:27:01;;;;;;;29.23;14.23;;;5.50;99.90;;;;;;20906267;28;20028;-77
2022/03/12 23:37:03;;;;;;;30.20;13.55;;;5.30;99.90;;;;;;20905915;28;20029;-76
2022/03/12 23:47:04;;;;;;;33.85;13.50;;;5.30;99.90;;;;;;20905432;28;20073;-77
2022/03/12 23:57:07;;;;;;;30.88;14.25;;;5.20;99.90;;;;;;20918644;28;20075;-77
